createdAt,value
2018-10-06T00:00:15.232Z,14.60
2018-10-06T00:02:43.506Z,14.50
2018-10-06T00:05:11.874Z,14.50
2018-10-06T00:07:40.147Z,14.50
2018-10-06T00:10:08.424Z,14.40
2018-10-06T00:12:36.679Z,14.40
2018-10-06T00:15:05.172Z,14.40
2018-10-06T00:17:33.445Z,14.30
2018-10-06T00:20:01.717Z,14.30
2018-10-06T00:22:30.040Z,14.30
2018-10-06T00:24:58.326Z,14.20
2018-10-06T00:27:27.642Z,14.20
2018-10-06T00:29:56.441Z,14.20
2018-10-06T00:32:24.918Z,14.20
2018-10-06T00:34:53.195Z,14.20
2018-10-06T00:37:21.449Z,14.10
2018-10-06T00:39:49.728Z,14.00
2018-10-06T00:42:18.005Z,13.90
2018-10-06T00:44:46.265Z,13.90
2018-10-06T00:47:16.029Z,13.90
2018-10-06T00:49:44.304Z,13.80
2018-10-06T00:52:12.632Z,13.80
2018-10-06T00:54:40.858Z,13.70
2018-10-06T00:57:09.116Z,13.70
2018-10-06T00:59:37.416Z,13.60
2018-10-06T01:02:05.717Z,13.50
2018-10-06T01:04:33.946Z,13.50
2018-10-06T01:07:02.238Z,13.60
2018-10-06T01:09:30.475Z,13.60
2018-10-06T01:11:58.777Z,13.50
2018-10-06T01:14:27.040Z,13.60
2018-10-06T01:16:55.333Z,13.60
2018-10-06T01:19:23.561Z,13.50
2018-10-06T01:21:51.857Z,13.50
2018-10-06T01:24:20.116Z,13.50
2018-10-06T01:26:48.375Z,13.50
2018-10-06T01:29:16.667Z,13.50
2018-10-06T01:31:44.933Z,13.50
2018-10-06T01:34:13.329Z,13.40
2018-10-06T01:36:41.620Z,13.40
2018-10-06T01:39:09.904Z,13.40
2018-10-06T01:41:38.187Z,13.40
2018-10-06T01:44:06.565Z,13.30
2018-10-06T01:46:34.812Z,13.30
2018-10-06T01:49:03.122Z,13.30
2018-10-06T01:51:31.400Z,13.30
2018-10-06T01:53:59.633Z,13.30
2018-10-06T01:56:27.886Z,13.20
2018-10-06T01:58:56.141Z,13.20
2018-10-06T02:01:24.402Z,13.20
2018-10-06T02:03:52.646Z,13.10
2018-10-06T02:06:20.876Z,13.10
2018-10-06T02:08:49.179Z,13.10
2018-10-06T02:11:17.423Z,13.00
2018-10-06T02:13:45.703Z,13.00
2018-10-06T02:16:14.100Z,13.00
2018-10-06T02:18:42.384Z,12.90
2018-10-06T02:21:10.650Z,12.90
2018-10-06T02:23:38.930Z,12.80
2018-10-06T02:26:07.280Z,12.80
2018-10-06T02:28:35.535Z,12.80
2018-10-06T02:31:03.790Z,12.80
2018-10-06T02:33:32.026Z,12.70
2018-10-06T02:36:00.261Z,12.70
2018-10-06T02:38:28.513Z,12.60
2018-10-06T02:40:56.788Z,12.70
2018-10-06T02:43:25.027Z,12.60
2018-10-06T02:45:53.336Z,12.60
2018-10-06T02:48:21.586Z,12.60
2018-10-06T02:50:49.861Z,12.60
2018-10-06T02:53:18.163Z,12.60
2018-10-06T02:55:46.418Z,12.40
2018-10-06T02:58:14.692Z,12.30
2018-10-06T03:00:42.925Z,12.30
2018-10-06T03:03:11.209Z,12.30
2018-10-06T03:05:39.464Z,12.20
2018-10-06T03:08:07.721Z,12.00
2018-10-06T03:10:35.991Z,11.90
2018-10-06T03:13:04.271Z,12.00
2018-10-06T03:15:32.499Z,12.10
2018-10-06T03:18:00.770Z,12.10
2018-10-06T03:20:29.050Z,12.10
2018-10-06T03:22:57.301Z,12.10
2018-10-06T03:25:25.579Z,12.10
2018-10-06T03:27:53.816Z,12.10
2018-10-06T03:30:22.078Z,12.10
2018-10-06T03:32:50.332Z,12.00
2018-10-06T03:35:18.632Z,12.00
2018-10-06T03:37:46.887Z,12.00
2018-10-06T03:40:15.141Z,12.00
2018-10-06T03:42:43.400Z,12.00
2018-10-06T03:45:11.669Z,12.00
2018-10-06T03:47:39.926Z,11.90
2018-10-06T03:50:08.213Z,11.90
2018-10-06T03:52:36.499Z,11.90
2018-10-06T03:55:04.831Z,11.90
2018-10-06T03:57:33.122Z,11.90
2018-10-06T04:00:01.368Z,11.90
2018-10-06T04:02:29.669Z,11.90
2018-10-06T04:04:57.953Z,11.80
2018-10-06T04:07:26.202Z,11.80
2018-10-06T04:09:54.486Z,11.80
2018-10-06T04:12:22.711Z,11.80
2018-10-06T04:14:51.914Z,11.80
2018-10-06T04:17:20.177Z,11.70
2018-10-06T04:19:48.484Z,11.70
2018-10-06T04:22:16.768Z,11.70
2018-10-06T04:24:45.085Z,11.60
2018-10-06T04:27:13.395Z,11.60
2018-10-06T04:29:41.655Z,11.60
2018-10-06T04:32:09.917Z,11.50
2018-10-06T04:34:38.193Z,11.50
2018-10-06T04:37:06.542Z,11.50
2018-10-06T04:39:34.863Z,11.50
2018-10-06T04:42:03.155Z,11.40
2018-10-06T04:44:31.412Z,11.40
2018-10-06T04:46:59.660Z,11.40
2018-10-06T04:49:27.957Z,11.40
2018-10-06T04:51:56.277Z,11.30
2018-10-06T04:54:24.499Z,11.30
2018-10-06T04:56:52.746Z,11.30
2018-10-06T04:59:21.045Z,11.20
2018-10-06T05:01:49.308Z,11.20
2018-10-06T05:04:17.546Z,11.20
2018-10-06T05:06:45.796Z,11.20
2018-10-06T05:09:14.185Z,11.20
2018-10-06T05:11:42.438Z,11.20
2018-10-06T05:14:10.711Z,11.20
2018-10-06T05:16:39.025Z,11.10
2018-10-06T05:19:07.292Z,11.10
2018-10-06T05:21:35.529Z,11.10
2018-10-06T05:24:03.813Z,11.10
2018-10-06T05:26:32.093Z,11.10
2018-10-06T05:29:00.370Z,11.10
2018-10-06T05:31:28.641Z,11.00
2018-10-06T05:33:56.988Z,11.00
2018-10-06T05:36:25.170Z,11.00
2018-10-06T05:38:53.431Z,11.00
2018-10-06T05:41:21.689Z,11.00
2018-10-06T05:43:49.969Z,10.90
2018-10-06T05:46:18.246Z,10.90
2018-10-06T05:48:46.869Z,10.90
2018-10-06T05:51:15.130Z,10.90
2018-10-06T05:53:43.412Z,10.90
2018-10-06T05:56:11.664Z,10.90
2018-10-06T05:58:39.948Z,10.90
2018-10-06T06:01:08.272Z,10.90
2018-10-06T06:03:36.568Z,10.90
2018-10-06T06:06:04.797Z,10.90
2018-10-06T06:08:33.024Z,10.90
2018-10-06T06:11:01.320Z,11.00
2018-10-06T06:13:29.608Z,11.00
2018-10-06T06:15:57.843Z,11.10
2018-10-06T06:18:26.128Z,11.10
2018-10-06T06:20:54.377Z,11.10
2018-10-06T06:23:22.669Z,11.20
2018-10-06T06:25:50.922Z,11.20
2018-10-06T06:28:19.212Z,11.20
2018-10-06T06:30:47.523Z,11.20
2018-10-06T06:33:15.956Z,11.30
2018-10-06T06:35:44.372Z,11.30
2018-10-06T06:38:12.870Z,11.40
2018-10-06T06:40:41.130Z,11.40
2018-10-06T06:43:09.406Z,11.50
2018-10-06T06:45:37.733Z,11.50
2018-10-06T06:48:06.185Z,11.50
2018-10-06T06:50:34.490Z,11.60
2018-10-06T06:53:02.763Z,11.70
2018-10-06T06:55:31.033Z,11.80
2018-10-06T06:57:59.316Z,11.80
2018-10-06T07:00:27.624Z,11.90
2018-10-06T07:02:55.874Z,12.00
2018-10-06T07:05:24.984Z,12.10
2018-10-06T07:07:54.645Z,12.20
2018-10-06T07:10:23.377Z,12.30
2018-10-06T07:12:51.656Z,12.30
2018-10-06T07:15:19.922Z,12.40
2018-10-06T07:17:48.211Z,12.50
2018-10-06T07:20:17.220Z,12.60
2018-10-06T07:22:45.524Z,12.70
2018-10-06T07:25:13.920Z,12.70
2018-10-06T07:27:42.141Z,12.90
2018-10-06T07:30:10.419Z,13.00
2018-10-06T07:32:38.771Z,13.10
2018-10-06T07:35:07.053Z,13.30
2018-10-06T07:37:35.322Z,13.40
2018-10-06T07:40:03.585Z,13.50
2018-10-06T07:42:31.853Z,13.70
2018-10-06T07:45:00.225Z,13.80
2018-10-06T07:47:28.362Z,13.90
2018-10-06T07:49:56.629Z,14.00
2018-10-06T07:52:24.894Z,14.20
2018-10-06T07:54:53.199Z,14.30
2018-10-06T07:57:21.453Z,14.40
2018-10-06T07:59:49.739Z,14.40
2018-10-06T08:02:18.005Z,14.50
2018-10-06T08:04:47.658Z,14.70
2018-10-06T08:07:15.927Z,14.80
2018-10-06T08:09:44.316Z,14.90
2018-10-06T08:12:12.603Z,15.00
2018-10-06T08:14:40.851Z,15.10
2018-10-06T08:17:09.092Z,15.30
2018-10-06T08:19:37.385Z,15.40
2018-10-06T08:22:05.747Z,15.50
2018-10-06T08:24:33.992Z,15.60
2018-10-06T08:27:02.334Z,15.80
2018-10-06T08:29:30.662Z,15.80
2018-10-06T08:31:59.136Z,16.00
2018-10-06T08:34:27.387Z,16.10
2018-10-06T08:36:55.642Z,16.20
2018-10-06T08:39:24.136Z,16.30
2018-10-06T08:41:52.517Z,16.40
2018-10-06T08:44:20.752Z,16.50
2018-10-06T08:46:49.043Z,16.70
2018-10-06T08:49:17.280Z,16.70
2018-10-06T08:51:45.572Z,16.90
2018-10-06T08:54:13.913Z,17.00
2018-10-06T08:56:42.280Z,17.10
2018-10-06T08:59:10.572Z,17.20
2018-10-06T09:01:38.864Z,17.40
2018-10-06T09:04:07.333Z,17.50
2018-10-06T09:06:35.559Z,17.60
2018-10-06T09:09:05.048Z,17.70
2018-10-06T09:11:33.321Z,17.90
2018-10-06T09:14:01.554Z,18.00
2018-10-06T09:16:29.790Z,18.10
2018-10-06T09:18:58.089Z,18.30
2018-10-06T09:21:26.517Z,18.30
2018-10-06T09:23:54.749Z,18.50
2018-10-06T09:26:22.997Z,18.60
2018-10-06T09:28:51.256Z,18.80
2018-10-06T09:31:19.549Z,18.90
2018-10-06T09:33:47.810Z,19.00
2018-10-06T09:36:16.090Z,19.10
2018-10-06T09:38:44.353Z,19.20
2018-10-06T09:41:12.768Z,19.30
2018-10-06T09:43:41.122Z,19.40
2018-10-06T09:46:09.392Z,19.50
2018-10-06T09:48:37.733Z,19.60
2018-10-06T09:51:06.246Z,19.60
2018-10-06T09:53:34.550Z,19.80
2018-10-06T09:56:02.809Z,19.90
2018-10-06T09:58:31.077Z,20.00
2018-10-06T10:01:04.968Z,20.10
2018-10-06T10:03:38.593Z,20.20
2018-10-06T10:06:07.031Z,20.30
2018-10-06T10:08:35.269Z,20.40
2018-10-06T10:11:03.657Z,20.50
2018-10-06T10:13:31.993Z,20.50
2018-10-06T10:16:00.234Z,20.70
2018-10-06T10:18:28.594Z,20.80
2018-10-06T10:20:56.846Z,20.90
2018-10-06T10:23:25.216Z,21.00
2018-10-06T10:25:53.412Z,21.10
2018-10-06T10:28:21.774Z,21.10
2018-10-06T10:30:50.059Z,21.30
2018-10-06T10:33:18.340Z,21.40
2018-10-06T10:35:46.602Z,21.40
2018-10-06T10:38:15.172Z,21.50
2018-10-06T10:40:43.529Z,21.60
2018-10-06T10:43:11.780Z,21.70
2018-10-06T10:45:40.079Z,21.80
2018-10-06T10:48:08.443Z,22.00
2018-10-06T10:50:36.702Z,22.10
2018-10-06T10:53:04.955Z,22.30
2018-10-06T10:55:33.379Z,22.40
2018-10-06T10:58:01.659Z,22.60
2018-10-06T11:00:29.992Z,22.70
2018-10-06T11:02:58.186Z,22.80
2018-10-06T11:05:26.468Z,23.20
2018-10-06T11:07:54.736Z,23.70
2018-10-06T11:10:23.092Z,24.30
2018-10-06T11:12:51.572Z,25.00
2018-10-06T11:15:19.833Z,25.70
2018-10-06T11:17:48.140Z,25.90
2018-10-06T11:20:16.380Z,26.60
2018-10-06T11:22:44.680Z,27.50
2018-10-06T11:25:13.044Z,27.90
2018-10-06T11:27:41.332Z,28.30
2018-10-06T11:30:09.578Z,28.70
2018-10-06T11:32:37.843Z,28.80
2018-10-06T11:35:06.110Z,28.70
2018-10-06T11:37:34.553Z,28.80
2018-10-06T11:40:02.729Z,28.90
2018-10-06T11:42:30.993Z,29.60
2018-10-06T11:44:59.266Z,29.70
2018-10-06T11:47:27.516Z,29.90
2018-10-06T11:49:55.867Z,30.00
2018-10-06T11:52:24.220Z,30.00
2018-10-06T11:54:52.481Z,29.90
2018-10-06T11:57:20.736Z,29.80
2018-10-06T11:59:49.048Z,29.70
2018-10-06T12:02:17.414Z,29.50
2018-10-06T12:04:45.689Z,29.70
2018-10-06T12:07:14.027Z,30.00
2018-10-06T12:09:42.256Z,30.50
2018-10-06T12:12:10.546Z,31.40
2018-10-06T12:14:38.765Z,31.70
2018-10-06T12:17:07.029Z,31.40
2018-10-06T12:19:35.297Z,31.00
2018-10-06T12:22:03.575Z,30.70
2018-10-06T12:24:31.836Z,30.50
2018-10-06T12:27:00.132Z,30.60
2018-10-06T12:29:28.401Z,30.80
2018-10-06T12:31:56.670Z,31.10
2018-10-06T12:34:24.929Z,30.90
2018-10-06T12:36:53.200Z,30.80
2018-10-06T12:39:21.465Z,30.80
2018-10-06T12:41:49.701Z,30.90
2018-10-06T12:44:18.015Z,31.20
2018-10-06T12:46:46.266Z,31.50
2018-10-06T12:49:14.605Z,31.20
2018-10-06T12:51:42.851Z,31.20
2018-10-06T12:54:11.119Z,31.60
2018-10-06T12:56:39.401Z,32.20
2018-10-06T12:59:07.677Z,32.30
2018-10-06T13:01:35.930Z,32.80
2018-10-06T13:04:04.163Z,33.10
2018-10-06T13:06:32.445Z,33.30
2018-10-06T13:09:00.698Z,33.10
2018-10-06T13:11:29.050Z,33.00
2018-10-06T13:13:57.286Z,32.90
2018-10-06T13:16:25.685Z,33.10
2018-10-06T13:18:53.926Z,32.80
2018-10-06T13:21:22.313Z,32.50
2018-10-06T13:23:50.616Z,32.40
2018-10-06T13:26:18.863Z,32.80
2018-10-06T13:28:47.144Z,32.70
2018-10-06T13:31:15.441Z,32.50
2018-10-06T13:33:43.709Z,32.10
2018-10-06T13:36:11.931Z,32.30
2018-10-06T13:38:40.229Z,32.50
2018-10-06T13:41:08.771Z,32.60
2018-10-06T13:43:37.073Z,32.80
2018-10-06T13:46:05.289Z,32.90
2018-10-06T13:48:33.541Z,33.00
2018-10-06T13:51:01.797Z,32.80
2018-10-06T13:53:30.092Z,32.80
2018-10-06T13:55:58.422Z,33.20
2018-10-06T13:58:26.669Z,33.30
2018-10-06T14:00:55.039Z,33.30
2018-10-06T14:03:23.428Z,33.40
2018-10-06T14:05:51.676Z,33.10
2018-10-06T14:08:20.176Z,32.60
2018-10-06T14:10:48.424Z,32.50
2018-10-06T14:13:16.684Z,32.10
2018-10-06T14:15:44.973Z,32.10
2018-10-06T14:18:13.322Z,31.80
2018-10-06T14:20:41.581Z,31.80
2018-10-06T14:23:09.980Z,31.70
2018-10-06T14:25:38.229Z,31.80
2018-10-06T14:28:06.529Z,32.30
2018-10-06T14:30:34.781Z,32.40
2018-10-06T14:33:03.038Z,31.70
2018-10-06T14:35:31.323Z,31.20
2018-10-06T14:37:59.568Z,31.10
2018-10-06T14:40:27.835Z,31.00
2018-10-06T14:42:56.086Z,31.10
2018-10-06T14:45:24.322Z,31.10
2018-10-06T14:47:52.645Z,31.20
2018-10-06T14:50:20.902Z,31.40
2018-10-06T14:52:49.191Z,31.60
2018-10-06T14:55:17.451Z,32.00
2018-10-06T14:57:45.713Z,32.60
2018-10-06T15:00:14.193Z,33.10
2018-10-06T15:02:42.448Z,33.40
2018-10-06T15:05:10.729Z,33.50
2018-10-06T15:07:38.962Z,33.10
2018-10-06T15:10:07.206Z,32.50
2018-10-06T15:12:35.460Z,32.20
2018-10-06T15:15:03.732Z,31.70
2018-10-06T15:17:31.992Z,31.20
2018-10-06T15:20:00.324Z,30.50
2018-10-06T15:22:28.620Z,30.00
2018-10-06T15:24:56.960Z,30.00
2018-10-06T15:27:25.216Z,30.00
2018-10-06T15:29:53.483Z,30.00
2018-10-06T15:32:21.730Z,30.10
2018-10-06T15:34:49.981Z,30.20
2018-10-06T15:37:18.271Z,30.00
2018-10-06T15:39:46.574Z,29.80
2018-10-06T15:42:14.905Z,29.70
2018-10-06T15:44:43.173Z,29.60
2018-10-06T15:47:11.437Z,29.70
2018-10-06T15:49:39.666Z,29.90
2018-10-06T15:52:07.933Z,29.80
2018-10-06T15:54:36.201Z,30.00
2018-10-06T15:57:04.486Z,30.50
2018-10-06T15:59:32.744Z,31.10
2018-10-06T16:02:01.002Z,31.90
2018-10-06T16:04:29.249Z,32.50
2018-10-06T16:06:57.526Z,33.10
2018-10-06T16:09:25.788Z,33.60
2018-10-06T16:11:54.061Z,33.80
2018-10-06T16:14:22.317Z,34.00
2018-10-06T16:16:50.596Z,34.10
2018-10-06T16:19:18.842Z,34.10
2018-10-06T16:21:47.113Z,33.90
2018-10-06T16:24:15.525Z,33.50
2018-10-06T16:26:43.804Z,32.90
2018-10-06T16:29:12.100Z,32.30
2018-10-06T16:31:40.363Z,31.70
2018-10-06T16:34:08.629Z,31.10
2018-10-06T16:36:37.022Z,30.50
2018-10-06T16:39:06.029Z,29.90
2018-10-06T16:41:34.331Z,29.40
2018-10-06T16:44:02.655Z,29.00
2018-10-06T16:46:30.879Z,28.60
2018-10-06T16:48:59.236Z,28.30
2018-10-06T16:51:27.594Z,28.00
2018-10-06T16:53:56.089Z,27.70
2018-10-06T16:56:24.450Z,27.40
2018-10-06T16:58:52.730Z,27.10
2018-10-06T17:01:21.001Z,26.80
2018-10-06T17:03:49.314Z,26.50
2018-10-06T17:06:17.669Z,26.20
2018-10-06T17:08:45.953Z,26.00
2018-10-06T17:11:14.334Z,25.80
2018-10-06T17:13:42.620Z,25.60
2018-10-06T17:16:10.849Z,25.50
2018-10-06T17:18:39.124Z,25.30
2018-10-06T17:21:07.381Z,25.10
2018-10-06T17:23:35.808Z,24.90
2018-10-06T17:26:04.079Z,24.80
2018-10-06T17:28:32.371Z,24.60
2018-10-06T17:33:51.421Z,24.30
2018-10-06T17:36:19.716Z,24.20
2018-10-06T17:38:48.196Z,24.10
2018-10-06T17:41:16.510Z,23.90
2018-10-06T17:43:44.854Z,23.80
2018-10-06T17:46:13.220Z,23.70
2018-10-06T17:48:41.761Z,23.60
2018-10-06T17:51:10.112Z,23.50
2018-10-06T17:53:38.451Z,23.30
2018-10-06T17:56:07.016Z,23.30
2018-10-06T17:58:35.389Z,23.10
2018-10-06T18:01:03.807Z,23.10
2018-10-06T18:03:32.046Z,23.00
2018-10-06T18:06:00.298Z,22.90
2018-10-06T18:08:28.597Z,22.80
2018-10-06T18:10:56.846Z,22.70
2018-10-06T18:13:25.137Z,22.60
2018-10-06T18:15:53.416Z,22.60
2018-10-06T18:18:21.672Z,22.50
2018-10-06T18:20:49.967Z,22.50
2018-10-06T18:23:18.224Z,22.40
2018-10-06T18:25:46.550Z,22.40
2018-10-06T18:28:14.910Z,22.20
2018-10-06T18:30:43.534Z,22.20
2018-10-06T18:33:11.827Z,22.10
2018-10-06T18:35:40.121Z,22.00
2018-10-06T18:38:08.423Z,21.90
2018-10-06T18:40:36.698Z,21.90
2018-10-06T18:43:05.037Z,21.80
2018-10-06T18:45:33.268Z,21.70
2018-10-06T18:48:01.513Z,21.70
2018-10-06T18:50:29.811Z,21.60
2018-10-06T18:52:58.096Z,21.60
2018-10-06T18:55:26.336Z,21.50
2018-10-06T18:57:54.602Z,21.40
2018-10-06T19:00:22.869Z,21.30
2018-10-06T19:02:51.133Z,21.30
2018-10-06T19:05:19.407Z,21.20
2018-10-06T19:07:47.649Z,21.20
2018-10-06T19:10:15.998Z,21.10
2018-10-06T19:12:44.261Z,21.00
2018-10-06T19:15:12.543Z,21.00
2018-10-06T19:17:40.800Z,20.90
2018-10-06T19:20:09.044Z,20.80
2018-10-06T19:22:37.313Z,20.70
2018-10-06T19:25:05.568Z,20.60
2018-10-06T19:27:33.911Z,20.60
2018-10-06T19:30:02.179Z,20.60
2018-10-06T19:32:30.483Z,20.60
2018-10-06T19:34:58.721Z,20.60
2018-10-06T19:37:26.993Z,20.60
2018-10-06T19:39:55.260Z,20.60
2018-10-06T19:42:23.520Z,20.50
2018-10-06T19:44:51.895Z,20.50
2018-10-06T19:47:20.147Z,20.40
2018-10-06T19:49:48.459Z,20.40
2018-10-06T19:52:16.732Z,20.30
2018-10-06T19:54:44.959Z,20.30
2018-10-06T19:57:13.462Z,20.30
2018-10-06T19:59:41.758Z,20.20
2018-10-06T20:02:10.293Z,20.10
2018-10-06T20:04:38.564Z,20.10
2018-10-06T20:07:07.865Z,20.00
2018-10-06T20:09:36.149Z,20.00
2018-10-06T20:12:04.427Z,19.90
2018-10-06T20:14:32.677Z,19.90
2018-10-06T20:17:00.940Z,19.80
2018-10-06T20:19:29.205Z,19.80
2018-10-06T20:21:57.445Z,19.70
2018-10-06T20:24:25.806Z,19.70
2018-10-06T20:26:54.184Z,19.60
2018-10-06T20:29:22.440Z,19.50
2018-10-06T20:31:50.745Z,19.50
2018-10-06T20:34:19.082Z,19.40
2018-10-06T20:36:47.377Z,19.40
2018-10-06T20:39:15.783Z,19.40
2018-10-06T20:41:44.082Z,19.30
2018-10-06T20:44:12.367Z,19.40
2018-10-06T20:46:40.657Z,19.40
2018-10-06T20:49:08.891Z,19.40
2018-10-06T20:51:37.145Z,19.40
2018-10-06T20:54:05.503Z,19.30
2018-10-06T20:56:33.773Z,19.30
2018-10-06T20:59:02.092Z,19.40
2018-10-06T21:01:30.347Z,19.40
2018-10-06T21:03:58.593Z,19.40
2018-10-06T21:06:26.859Z,19.50
2018-10-06T21:08:55.117Z,19.60
2018-10-06T21:11:23.362Z,19.70
2018-10-06T21:13:51.688Z,19.70
2018-10-06T21:16:43.281Z,19.80
2018-10-06T21:19:11.489Z,19.70
2018-10-06T21:21:39.727Z,19.70
2018-10-06T21:24:08.051Z,19.70
2018-10-06T21:26:36.250Z,19.70
2018-10-06T21:29:04.561Z,19.70
2018-10-06T21:31:32.892Z,19.70
2018-10-06T21:34:01.128Z,19.70
2018-10-06T21:36:29.344Z,19.50
2018-10-06T21:38:57.669Z,19.40
2018-10-06T21:41:25.866Z,19.30
2018-10-06T21:43:54.252Z,19.20
2018-10-06T21:46:22.503Z,19.10
2018-10-06T21:48:50.785Z,19.10
2018-10-06T21:51:18.982Z,19.00
2018-10-06T21:53:47.232Z,19.00
2018-10-06T21:56:15.471Z,19.00
2018-10-06T21:58:44.100Z,18.90
2018-10-06T22:01:13.824Z,18.70
2018-10-06T22:03:45.389Z,18.70
2018-10-06T22:06:13.650Z,18.80
2018-10-06T22:08:42.284Z,18.80
2018-10-06T22:11:10.527Z,18.70
2018-10-06T22:13:38.758Z,18.70
2018-10-06T22:16:07.569Z,18.70
2018-10-06T22:18:35.784Z,18.60
2018-10-06T22:21:04.022Z,18.50
2018-10-06T22:23:32.255Z,18.60
2018-10-06T22:26:00.438Z,18.50
2018-10-06T22:28:28.810Z,18.40
2018-10-06T22:30:57.126Z,18.50
2018-10-06T22:33:25.463Z,18.30
2018-10-06T22:35:53.686Z,18.20
2018-10-06T22:38:21.927Z,18.20
2018-10-06T22:40:50.154Z,18.00
2018-10-06T22:43:18.402Z,18.10
2018-10-06T22:45:46.682Z,18.10
2018-10-06T22:48:15.004Z,18.00
2018-10-06T22:50:43.217Z,17.90
2018-10-06T22:53:11.470Z,17.70
2018-10-06T22:55:39.792Z,17.70
2018-10-06T22:58:07.999Z,17.60
2018-10-06T23:00:36.225Z,17.60
2018-10-06T23:03:04.434Z,17.60
2018-10-06T23:05:32.731Z,17.60
2018-10-06T23:08:00.970Z,17.60
2018-10-06T23:10:29.199Z,17.50
2018-10-06T23:12:57.519Z,17.70
2018-10-06T23:15:25.756Z,17.60
2018-10-06T23:17:54.064Z,17.60
2018-10-06T23:20:22.304Z,17.60
2018-10-06T23:22:50.532Z,17.50
2018-10-06T23:25:18.795Z,17.40
2018-10-06T23:27:47.038Z,17.40
2018-10-06T23:30:15.444Z,17.40
2018-10-06T23:32:43.664Z,17.40
2018-10-06T23:35:11.898Z,17.30
2018-10-06T23:37:40.071Z,17.30
2018-10-06T23:40:08.492Z,17.30
2018-10-06T23:42:36.699Z,17.30
2018-10-06T23:45:05.398Z,17.30
2018-10-06T23:47:33.682Z,17.40
2018-10-06T23:50:01.978Z,17.40
2018-10-06T23:52:30.244Z,17.40
2018-10-06T23:54:58.459Z,17.50
2018-10-06T23:57:26.731Z,17.40
2018-10-06T23:59:54.956Z,17.40
